Dubuque (DBQ/KDBQ)

Map

Destinations

Information

Location
Dubuque, Iowa
Local Time
22:54 / 10:54 pm
GMT Time
03:54 / 3:54 am
Gates
Ramp
No FAA reported delays
METAR KDBQ 170349Z AUTO 18011KT 10SM BKN015 23/22 A2976 RMK AO2 TSNO
TAF KDBQ 162338Z 1700/1724 14006KT P6SM VCSH FEW010 SCT023 BKN050 TEMPO 1700/1702 3SM SHRA BKN015 OVC025 FM170500 22008KT P6SM SCT020 FM170900 26014G22KT P6SM OVC009 FM172300 28012G20KT P6SM SCT030